Zeus — V2OR — position and weather

sailwx.info

Track history (hours):
 
Tides and Currents Weather Stations Pressure Air Temp Water Temp Dewpoint Dewpoint Depression Visibility Wind Speed Wind Dir Waves Ship Positions

Zeus

Last reported at 2017-Jan-23 10:07 UTC. Time now 2017-Jan-23 10:44 UTC.
Position N 53°27' E 014°35'.

Length 89 m; draft 3.6 m.

Type: Cargo ship. MMSI: 304011025.

Date/timePositionNaut miles runAvg speedWind from/ knotsBaromVisibWave heightAir tempDewpointWater temp
2017-Jan-23 10:07N 53°27' E 014°35'0 0.0
2017-Jan-23 09:18N 53°27' E 014°35'0 0.0
2017-Jan-23 08:18N 53°27' E 014°35'0 0.0
2017-Jan-23 07:33N 53°27' E 014°35'0 0.0
2017-Jan-23 06:33N 53°27' E 014°35'0 0.0
2017-Jan-23 05:26N 53°27' E 014°35'0 0.0
2017-Jan-23 04:30N 53°27' E 014°35'0 0.0
2017-Jan-23 03:33N 53°27' E 014°35'0 0.0
2017-Jan-23 02:34N 53°27' E 014°35'0 0.0
2017-Jan-23 01:34N 53°27' E 014°35'0 0.0
2017-Jan-23 00:34N 53°27' E 014°35'0 0.0
2017-Jan-22 23:34N 53°27' E 014°35'0 0.0
2017-Jan-22 22:34N 53°27' E 014°35'0 0.0
2017-Jan-22 21:34N 53°27' E 014°35'0 0.0
2017-Jan-22 20:34N 53°27' E 014°35'0 0.0
2017-Jan-22 19:34N 53°27' E 014°35'0 0.0
2017-Jan-22 18:34N 53°27' E 014°35'0 0.0
2017-Jan-22 17:34N 53°27' E 014°35'0 0.0
2017-Jan-22 16:34N 53°27' E 014°35'0 0.0
2017-Jan-22 15:34N 53°27' E 014°35'0 0.0
2017-Jan-22 14:34N 53°27' E 014°35'0 0.0
2017-Jan-22 13:34N 53°27' E 014°35'0 0.0
2017-Jan-22 12:34N 53°27' E 014°35'0 0.0
2017-Jan-22 11:34N 53°27' E 014°35'0 0.0
2017-Jan-22 10:34N 53°27' E 014°35'0 0.0
2017-Jan-22 09:34N 53°27' E 014°35'0 0.0
2017-Jan-22 08:34N 53°27' E 014°35'0 0.0
2017-Jan-22 07:34N 53°27' E 014°35'0 0.0
2017-Jan-22 06:34N 53°27' E 014°35'0 0.0
2017-Jan-22 05:34N 53°27' E 014°35'0 0.0
2017-Jan-22 04:34N 53°27' E 014°35'0 0.0
2017-Jan-22 03:34N 53°27' E 014°35'0 0.0
2017-Jan-22 02:34N 53°27' E 014°35'0 0.0
2017-Jan-22 01:34N 53°27' E 014°35'0 0.0
2017-Jan-22 00:34N 53°27' E 014°35'0 0.0
2017-Jan-21 23:34N 53°27' E 014°35'0 0.0
2017-Jan-21 22:33N 53°27' E 014°35'0 0.0
2017-Jan-21 21:34N 53°27' E 014°35'0 0.0
2017-Jan-21 20:34N 53°27' E 014°35'0 0.0
2017-Jan-21 19:34N 53°27' E 014°35'0 0.0
2017-Jan-21 18:34N 53°27' E 014°35'0 0.0
2017-Jan-21 17:34N 53°27' E 014°35'0 0.0
2017-Jan-21 16:34N 53°27' E 014°35'3 2.5
2017-Jan-21 15:33N 53°29' E 014°37'9 9.1
2017-Jan-21 14:33N 53°38' E 014°34'75 9.3
2017-Jan-21 06:30N 54°51' E 015°08'1010.5
2017-Jan-21 05:30N 54°59' E 015°20'32210.1
2017-Jan-19 21:33N 59°49' E 019°36'1111.2
2017-Jan-19 20:33N 59°58' E 019°21'12 0.3
2017-Jan-17 23:21N 60°09' E 019°11'810.0
2017-Jan-17 22:33N 60°03' E 019°21'10 9.9
2017-Jan-17 21:33N 59°55' E 019°34'300 9.4
2017-Jan-16 13:32N 55°31' E 015°06'1010.3
2017-Jan-16 12:33N 55°26' E 014°51'1010.2
2017-Jan-16 11:33N 55°21' E 014°36'1110.2
2017-Jan-16 10:31N 55°13' E 014°23'10 9.7
2017-Jan-16 09:32N 55°11' E 014°06'39 9.5
2017-Jan-16 05:24N 55°15' E 012°58'8 9.7
2017-Jan-16 04:33N 55°16' E 012°44'8 8.0
2017-Jan-16 03:33N 55°24' E 012°40'10 9.6
2017-Jan-16 02:33N 55°34' E 012°42'9 8.8
2017-Jan-16 01:33N 55°42' E 012°41'9 9.3
2017-Jan-16 00:33N 55°51' E 012°39'10 9.7
2017-Jan-15 23:33N 56°01' E 012°38'8 7.6
2017-Jan-15 22:33N 56°07' E 012°30'79 9.4
2017-Jan-15 14:08N 57°19' E 011°29'6 9.7
2017-Jan-15 13:33N 57°24' E 011°25'9 9.4
2017-Jan-15 12:33N 57°32' E 011°15'9 9.3
2017-Jan-15 11:34N 57°38' E 011°02'9 9.4
2017-Jan-15 10:33N 57°44' E 010°49'124 9.3
2017-Jan-14 21:12N 57°57' E 006°58'6 9.7
2017-Jan-14 20:33N 57°59' E 006°47'10 9.8
2017-Jan-14 19:33N 58°04' E 006°30'1010.0
2017-Jan-14 18:33N 58°10' E 006°16'1110.3
2017-Jan-14 17:30N 58°18' E 006°01'1010.8
2017-Jan-14 16:33N 58°25' E 005°46'1110.7
2017-Jan-14 15:33N 58°33' E 005°34'1110.6
2017-Jan-14 14:33N 58°42' E 005°23'1010.2
2017-Jan-14 13:33N 58°50' E 005°12'1010.2
2017-Jan-14 12:33N 58°59' E 005°01'  
Track history (hours):
 
Tides and Currents Weather Stations Pressure Air Temp Water Temp Dewpoint Dewpoint Depression Visibility Wind Speed Wind Dir Waves Ship Positions

Zeus

Last reported at 2017-Jan-23 10:07 UTC. Time now 2017-Jan-23 10:44 UTC.
Position N 53°27' E 014°35'.

Length 89 m; draft 3.6 m.

Type: Cargo ship. MMSI: 304011025.

Date/timePositionNaut miles runAvg speedWind from/ knotsBaromVisibWave heightAir tempDewpointWater temp
2017-Jan-23 10:07N 53°27' E 014°35'0 0.0
2017-Jan-23 09:18N 53°27' E 014°35'0 0.0
2017-Jan-23 08:18N 53°27' E 014°35'0 0.0
2017-Jan-23 07:33N 53°27' E 014°35'0 0.0
2017-Jan-23 06:33N 53°27' E 014°35'0 0.0
2017-Jan-23 05:26N 53°27' E 014°35'0 0.0
2017-Jan-23 04:30N 53°27' E 014°35'0 0.0
2017-Jan-23 03:33N 53°27' E 014°35'0 0.0
2017-Jan-23 02:34N 53°27' E 014°35'0 0.0
2017-Jan-23 01:34N 53°27' E 014°35'0 0.0
2017-Jan-23 00:34N 53°27' E 014°35'0 0.0
2017-Jan-22 23:34N 53°27' E 014°35'0 0.0
2017-Jan-22 22:34N 53°27' E 014°35'0 0.0
2017-Jan-22 21:34N 53°27' E 014°35'0 0.0
2017-Jan-22 20:34N 53°27' E 014°35'0 0.0
2017-Jan-22 19:34N 53°27' E 014°35'0 0.0
2017-Jan-22 18:34N 53°27' E 014°35'0 0.0
2017-Jan-22 17:34N 53°27' E 014°35'0 0.0
2017-Jan-22 16:34N 53°27' E 014°35'0 0.0
2017-Jan-22 15:34N 53°27' E 014°35'0 0.0
2017-Jan-22 14:34N 53°27' E 014°35'0 0.0
2017-Jan-22 13:34N 53°27' E 014°35'0 0.0
2017-Jan-22 12:34N 53°27' E 014°35'0 0.0
2017-Jan-22 11:34N 53°27' E 014°35'0 0.0
2017-Jan-22 10:34N 53°27' E 014°35'0 0.0
2017-Jan-22 09:34N 53°27' E 014°35'0 0.0
2017-Jan-22 08:34N 53°27' E 014°35'0 0.0
2017-Jan-22 07:34N 53°27' E 014°35'0 0.0
2017-Jan-22 06:34N 53°27' E 014°35'0 0.0
2017-Jan-22 05:34N 53°27' E 014°35'0 0.0
2017-Jan-22 04:34N 53°27' E 014°35'0 0.0
2017-Jan-22 03:34N 53°27' E 014°35'0 0.0
2017-Jan-22 02:34N 53°27' E 014°35'0 0.0
2017-Jan-22 01:34N 53°27' E 014°35'0 0.0
2017-Jan-22 00:34N 53°27' E 014°35'0 0.0
2017-Jan-21 23:34N 53°27' E 014°35'0 0.0
2017-Jan-21 22:33N 53°27' E 014°35'0 0.0
2017-Jan-21 21:34N 53°27' E 014°35'0 0.0
2017-Jan-21 20:34N 53°27' E 014°35'0 0.0
2017-Jan-21 19:34N 53°27' E 014°35'0 0.0
2017-Jan-21 18:34N 53°27' E 014°35'0 0.0
2017-Jan-21 17:34N 53°27' E 014°35'0 0.0
2017-Jan-21 16:34N 53°27' E 014°35'3 2.5
2017-Jan-21 15:33N 53°29' E 014°37'9 9.1
2017-Jan-21 14:33N 53°38' E 014°34'75 9.3
2017-Jan-21 06:30N 54°51' E 015°08'1010.5
2017-Jan-21 05:30N 54°59' E 015°20'32210.1
2017-Jan-19 21:33N 59°49' E 019°36'1111.2
2017-Jan-19 20:33N 59°58' E 019°21'12 0.3
2017-Jan-17 23:21N 60°09' E 019°11'810.0
2017-Jan-17 22:33N 60°03' E 019°21'10 9.9
2017-Jan-17 21:33N 59°55' E 019°34'300 9.4
2017-Jan-16 13:32N 55°31' E 015°06'1010.3
2017-Jan-16 12:33N 55°26' E 014°51'1010.2
2017-Jan-16 11:33N 55°21' E 014°36'1110.2
2017-Jan-16 10:31N 55°13' E 014°23'10 9.7
2017-Jan-16 09:32N 55°11' E 014°06'39 9.5
2017-Jan-16 05:24N 55°15' E 012°58'8 9.7
2017-Jan-16 04:33N 55°16' E 012°44'8 8.0
2017-Jan-16 03:33N 55°24' E 012°40'10 9.6
2017-Jan-16 02:33N 55°34' E 012°42'9 8.8
2017-Jan-16 01:33N 55°42' E 012°41'9 9.3
2017-Jan-16 00:33N 55°51' E 012°39'10 9.7
2017-Jan-15 23:33N 56°01' E 012°38'8 7.6
2017-Jan-15 22:33N 56°07' E 012°30'79 9.4
2017-Jan-15 14:08N 57°19' E 011°29'6 9.7
2017-Jan-15 13:33N 57°24' E 011°25'9 9.4
2017-Jan-15 12:33N 57°32' E 011°15'9 9.3
2017-Jan-15 11:34N 57°38' E 011°02'9 9.4
2017-Jan-15 10:33N 57°44' E 010°49'124 9.3
2017-Jan-14 21:12N 57°57' E 006°58'6 9.7
2017-Jan-14 20:33N 57°59' E 006°47'10 9.8
2017-Jan-14 19:33N 58°04' E 006°30'1010.0
2017-Jan-14 18:33N 58°10' E 006°16'1110.3
2017-Jan-14 17:30N 58°18' E 006°01'1010.8
2017-Jan-14 16:33N 58°25' E 005°46'1110.7
2017-Jan-14 15:33N 58°33' E 005°34'1110.6
2017-Jan-14 14:33N 58°42' E 005°23'1010.2
2017-Jan-14 13:33N 58°50' E 005°12'1010.2
2017-Jan-14 12:33N 58°59' E 005°01'  

Dump ship's entire track history